Time,TemperatureF,DewpointF,PressureIn,WindDirection,WindDirectionDegrees,WindSpeedMPH,WindSpeedGustMPH,Humidity,HourlyPrecipIn,Conditions,Clouds,dailyrainin,SoftwareType,DateUTC
2013-07-12 00:00:00,79.2,74.3,29.99,WNW,285,1.0,1.0,85,0.00,,,0.00,Wunderground v.1.15,2013-07-12 04:00:00,
2013-07-12 00:10:00,78.9,74.4,29.98,West,278,0.0,1.0,86,0.00,,,0.00,Wunderground v.1.15,2013-07-12 04:10:00,
2013-07-12 00:20:00,78.7,74.8,29.98,West,278,0.0,0.0,88,0.00,,,0.00,Wunderground v.1.15,2013-07-12 04:20:00,
2013-07-12 00:30:00,78.4,74.9,29.97,WNW,288,0.0,0.0,89,0.00,,,0.00,Wunderground v.1.15,2013-07-12 04:30:00,
2013-07-12 00:40:00,78.3,74.8,29.97,WNW,285,1.0,1.0,89,0.00,,,0.00,Wunderground v.1.15,2013-07-12 04:40:00,
2013-07-12 00:50:00,78.1,74.6,29.97,WNW,282,0.0,0.0,89,0.00,,,0.00,Wunderground v.1.15,2013-07-12 04:50:00,
2013-07-12 01:00:00,77.8,74.6,29.97,WNW,282,0.0,0.0,90,0.00,,,0.00,Wunderground v.1.15,2013-07-12 05:00:00,
2013-07-12 01:10:00,77.7,74.5,29.96,WNW,282,0.0,0.0,90,0.00,,,0.00,Wunderground v.1.15,2013-07-12 05:10:00,
2013-07-12 01:20:00,77.7,74.5,29.96,WNW,283,0.0,0.0,90,0.00,,,0.00,Wunderground v.1.15,2013-07-12 05:20:00,
2013-07-12 01:30:00,77.6,74.4,29.96,West,281,0.0,0.0,90,0.00,,,0.00,Wunderground v.1.15,2013-07-12 05:30:00,
2013-07-12 01:40:00,77.4,74.2,29.95,WNW,282,0.0,0.0,90,0.00,,,0.00,Wunderground v.1.15,2013-07-12 05:40:00,
2013-07-12 01:50:00,77.2,74.4,29.95,WNW,283,0.0,0.0,91,0.00,,,0.00,Wunderground v.1.15,2013-07-12 05:50:00,
2013-07-12 02:00:00,77.2,74.4,29.95,WNW,282,0.0,0.0,91,0.00,,,0.00,Wunderground v.1.15,2013-07-12 06:00:00,
2013-07-12 02:10:00,77.1,74.3,29.95,WNW,282,0.0,0.0,91,0.00,,,0.00,Wunderground v.1.15,2013-07-12 06:10:00,
2013-07-12 02:20:00,77.3,74.5,29.95,WNW,283,0.0,0.0,91,0.00,,,0.00,Wunderground v.1.15,2013-07-12 06:20:00,
2013-07-12 02:30:00,77.4,74.6,29.94,WNW,284,0.0,0.0,91,0.00,,,0.00,Wunderground v.1.15,2013-07-12 06:30:00,
2013-07-12 02:40:00,77.1,74.3,29.94,WNW,284,0.0,0.0,91,0.00,,,0.00,Wunderground v.1.15,2013-07-12 06:40:00,
2013-07-12 02:50:00,77.2,74.7,29.94,WNW,291,0.0,0.0,92,0.00,,,0.00,Wunderground v.1.15,2013-07-12 06:50:00,
2013-07-12 03:00:00,77.0,74.5,29.94,WNW,291,0.0,0.0,92,0.00,,,0.00,Wunderground v.1.15,2013-07-12 07:00:00,
2013-07-12 03:10:00,77.1,74.6,29.94,WNW,291,0.0,0.0,92,0.00,,,0.00,Wunderground v.1.15,2013-07-12 07:10:00,
2013-07-12 03:20:00,77.2,74.7,29.94,WNW,290,0.0,0.0,92,0.00,,,0.00,Wunderground v.1.15,2013-07-12 07:20:00,
2013-07-12 03:30:00,77.1,74.6,29.95,WNW,291,0.0,0.0,92,0.00,,,0.00,Wunderground v.1.15,2013-07-12 07:30:00,
2013-07-12 03:40:00,77.0,74.8,29.94,WNW,291,0.0,0.0,93,0.00,,,0.00,Wunderground v.1.15,2013-07-12 07:40:00,
2013-07-12 03:50:00,76.9,74.7,29.94,WNW,291,0.0,0.0,93,0.00,,,0.00,Wunderground v.1.15,2013-07-12 07:50:00,
2013-07-12 04:00:00,76.9,74.7,29.93,WNW,291,0.0,0.0,93,0.00,,,0.00,Wunderground v.1.15,2013-07-12 08:00:00,
2013-07-12 04:10:00,76.8,74.6,29.93,WNW,288,0.0,0.0,93,0.00,,,0.00,Wunderground v.1.15,2013-07-12 08:10:00,
2013-07-12 04:20:00,76.7,74.5,29.93,WNW,288,0.0,0.0,93,0.00,,,0.00,Wunderground v.1.15,2013-07-12 08:20:00,
2013-07-12 04:30:00,76.7,74.8,29.93,WNW,290,0.0,0.0,94,0.00,,,0.00,Wunderground v.1.15,2013-07-12 08:30:00,
2013-07-12 04:40:00,76.4,74.5,29.93,WNW,290,0.0,0.0,94,0.00,,,0.00,Wunderground v.1.15,2013-07-12 08:40:00,
2013-07-12 04:50:00,76.5,74.6,29.93,WNW,290,0.0,0.0,94,0.00,,,0.00,Wunderground v.1.15,2013-07-12 08:50:00,
2013-07-12 05:00:00,76.3,74.4,29.94,WNW,290,0.0,0.0,94,0.00,,,0.00,Wunderground v.1.15,2013-07-12 09:00:00,
2013-07-12 05:10:00,76.2,74.3,29.93,WNW,290,0.0,0.0,94,0.00,,,0.00,Wunderground v.1.15,2013-07-12 09:10:00,
2013-07-12 05:20:00,76.3,74.8,29.93,WNW,290,0.0,0.0,95,0.00,,,0.00,Wunderground v.1.15,2013-07-12 09:20:00,
2013-07-12 05:30:00,76.4,74.9,29.93,WNW,288,0.0,0.0,95,0.00,,,0.00,Wunderground v.1.15,2013-07-12 09:30:00,
2013-07-12 05:40:00,76.4,74.9,29.93,WNW,290,0.0,0.0,95,0.00,,,0.00,Wunderground v.1.15,2013-07-12 09:40:00,
2013-07-12 05:50:00,76.4,74.5,29.93,WNW,303,0.0,0.0,94,0.00,,,0.00,Wunderground v.1.15,2013-07-12 09:50:00,
2013-07-12 06:00:00,76.5,75.0,29.93,NW,304,0.0,0.0,95,0.00,,,0.00,Wunderground v.1.15,2013-07-12 10:00:00,
2013-07-12 06:10:00,76.5,75.0,29.93,WNW,300,0.0,0.0,95,0.00,,,0.00,Wunderground v.1.15,2013-07-12 10:10:00,
2013-07-12 06:20:00,76.3,74.8,29.93,WNW,301,0.0,0.0,95,0.00,,,0.00,Wunderground v.1.15,2013-07-12 10:20:00,
2013-07-12 06:30:00,76.2,74.7,29.94,WNW,300,0.0,0.0,95,0.00,,,0.00,Wunderground v.1.15,2013-07-12 10:30:00,
2013-07-12 06:40:00,76.2,74.7,29.94,NW,304,0.0,0.0,95,0.00,,,0.00,Wunderground v.1.15,2013-07-12 10:40:00,
2013-07-12 06:50:00,76.4,74.9,29.94,NW,304,0.0,0.0,95,0.00,,,0.00,Wunderground v.1.15,2013-07-12 10:50:00,
2013-07-12 07:00:00,76.7,75.2,29.94,WNW,300,0.0,0.0,95,0.00,,,0.00,Wunderground v.1.15,2013-07-12 11:00:00,
2013-07-12 07:10:00,77.2,75.7,29.95,West,263,0.0,0.0,95,0.00,,,0.00,Wunderground v.1.15,2013-07-12 11:10:00,
2013-07-12 07:20:00,77.4,75.5,29.95,West,263,0.0,0.0,94,0.00,,,0.00,Wunderground v.1.15,2013-07-12 11:20:00,
2013-07-12 07:30:00,77.7,75.8,29.95,West,263,0.0,0.0,94,0.00,,,0.00,Wunderground v.1.15,2013-07-12 11:30:00,
2013-07-12 07:40:00,78.6,76.4,29.95,West,263,0.0,0.0,93,0.00,,,0.00,Wunderground v.1.15,2013-07-12 11:40:00,
2013-07-12 07:50:00,79.4,76.9,29.96,WSW,248,0.0,0.0,92,0.00,,,0.00,Wunderground v.1.15,2013-07-12 11:50:00,
2013-07-12 08:00:00,80.6,77.4,29.97,WSW,248,0.0,0.0,90,0.00,,,0.00,Wunderground v.1.15,2013-07-12 12:00:00,
2013-07-12 08:10:00,81.0,76.8,29.96,West,272,0.0,1.0,87,0.00,,,0.00,Wunderground v.1.15,2013-07-12 12:10:00,
2013-07-12 08:20:00,81.3,76.7,29.96,SW,217,1.0,1.0,86,0.00,,,0.00,Wunderground v.1.15,2013-07-12 12:20:00,
2013-07-12 08:30:00,81.9,76.6,29.96,WNW,300,1.0,1.0,84,0.00,,,0.00,Wunderground v.1.15,2013-07-12 12:30:00,
2013-07-12 08:40:00,82.0,76.3,29.96,NW,317,2.0,2.0,83,0.00,,,0.00,Wunderground v.1.15,2013-07-12 12:40:00,
2013-07-12 08:50:00,82.1,76.1,29.97,WSW,255,0.0,0.0,82,0.00,,,0.00,Wunderground v.1.15,2013-07-12 12:50:00,
2013-07-12 09:00:00,81.9,75.9,29.97,WSW,249,0.0,0.0,82,0.00,,,0.00,Wunderground v.1.15,2013-07-12 13:00:00,
2013-07-12 09:10:00,81.6,75.9,29.97,WSW,250,0.0,0.0,83,0.00,,,0.00,Wunderground v.1.15,2013-07-12 13:10:00,
2013-07-12 09:20:00,82.1,76.8,29.97,WSW,252,0.0,0.0,84,0.00,,,0.00,Wunderground v.1.15,2013-07-12 13:20:00,
2013-07-12 09:30:00,82.7,75.9,29.98,WSW,257,1.0,1.0,80,0.00,,,0.00,Wunderground v.1.15,2013-07-12 13:30:00,
2013-07-12 09:40:00,83.6,76.4,29.97,West,263,2.0,2.0,79,0.00,,,0.00,Wunderground v.1.15,2013-07-12 13:40:00,
2013-07-12 09:50:00,84.4,75.6,29.97,NW,309,2.0,3.0,75,0.00,,,0.00,Wunderground v.1.15,2013-07-12 13:50:00,
2013-07-12 10:00:00,85.1,75.9,29.97,West,276,3.0,3.0,74,0.00,,,0.00,Wunderground v.1.15,2013-07-12 14:00:00,
2013-07-12 10:10:00,85.9,75.8,29.97,WNW,293,2.0,3.0,72,0.00,,,0.00,Wunderground v.1.15,2013-07-12 14:10:00,
2013-07-12 10:20:00,86.1,76.0,29.97,NE,37,3.0,3.0,72,0.00,,,0.00,Wunderground v.1.15,2013-07-12 14:20:00,
2013-07-12 10:30:00,86.4,75.5,29.97,SW,219,3.0,3.0,70,0.00,,,0.00,Wunderground v.1.15,2013-07-12 14:30:00,
2013-07-12 10:40:00,85.6,75.5,29.98,WSW,252,2.0,2.0,72,0.00,,,0.00,Wunderground v.1.15,2013-07-12 14:40:00,
2013-07-12 10:50:00,86.1,73.9,29.98,South,169,1.0,4.0,67,0.00,,,0.00,Wunderground v.1.15,2013-07-12 14:50:00,
2013-07-12 11:00:00,86.6,76.1,29.98,East,96,2.0,3.0,71,0.00,,,0.00,Wunderground v.1.15,2013-07-12 15:00:00,
2013-07-12 11:10:00,86.3,76.6,29.98,ESE,108,4.0,5.0,73,0.00,,,0.00,Wunderground v.1.15,2013-07-12 15:10:00,
2013-07-12 11:20:00,85.2,76.8,29.98,South,188,3.0,3.0,76,0.00,,,0.00,Wunderground v.1.15,2013-07-12 15:20:00,
2013-07-12 11:30:00,84.6,76.2,29.98,ESE,104,3.0,5.0,76,0.00,,,0.00,Wunderground v.1.15,2013-07-12 15:30:00,
2013-07-12 11:40:00,83.8,76.2,29.98,SSE,149,4.0,4.0,78,0.00,,,0.00,Wunderground v.1.15,2013-07-12 15:40:00,
2013-07-12 11:50:00,83.6,76.4,29.98,SE,124,5.0,5.0,79,0.00,,,0.00,Wunderground v.1.15,2013-07-12 15:50:00,
2013-07-12 12:00:00,83.4,76.6,29.98,SSE,165,5.0,5.0,80,0.00,,,0.00,Wunderground v.1.15,2013-07-12 16:00:00,
2013-07-12 12:10:00,83.4,76.6,29.99,West,280,5.0,7.0,80,0.00,,,0.00,Wunderground v.1.15,2013-07-12 16:10:00,
2013-07-12 12:20:00,80.5,73.8,29.99,WSW,240,8.0,8.0,80,0.00,,,0.00,Wunderground v.1.15,2013-07-12 16:20:00,
2013-07-12 12:30:00,78.4,71.3,29.98,West,271,7.0,7.0,79,0.00,,,0.00,Wunderground v.1.15,2013-07-12 16:30:00,
2013-07-12 12:40:00,78.6,71.2,29.98,WNW,298,6.0,6.0,78,0.00,,,0.00,Wunderground v.1.15,2013-07-12 16:40:00,
2013-07-12 12:50:00,79.5,70.5,29.97,NW,304,5.0,5.0,74,0.00,,,0.00,Wunderground v.1.15,2013-07-12 16:50:00,
2013-07-12 13:00:00,80.8,70.9,29.96,WSW,254,2.0,3.0,72,0.00,,,0.00,Wunderground v.1.15,2013-07-12 17:00:00,
2013-07-12 13:20:00,83.6,73.6,29.96,WSW,254,3.0,3.0,72,0.00,,,0.00,Wunderground v.1.15,2013-07-12 17:20:00,
2013-07-12 13:30:00,84.8,74.3,29.95,West,267,3.0,4.0,71,0.00,,,0.00,Wunderground v.1.15,2013-07-12 17:30:00,
2013-07-12 13:40:00,86.2,75.3,29.95,West,266,3.0,3.0,70,0.00,,,0.00,Wunderground v.1.15,2013-07-12 17:40:00,
2013-07-12 13:50:00,87.0,75.6,29.95,SSW,195,3.0,3.0,69,0.00,,,0.00,Wunderground v.1.15,2013-07-12 17:50:00,
2013-07-12 14:00:00,86.9,76.4,29.95,SSE,165,4.0,6.0,71,0.00,,,0.00,Wunderground v.1.15,2013-07-12 18:00:00,
2013-07-12 14:20:00,86.6,74.8,29.94,WSW,241,4.0,4.0,68,0.00,,,0.00,Wunderground v.1.15,2013-07-12 18:20:00,
2013-07-12 14:30:00,87.8,75.0,29.94,WSW,239,3.0,6.0,66,0.00,,,0.00,Wunderground v.1.15,2013-07-12 18:30:00,
2013-07-12 14:40:00,88.7,75.0,29.94,SW,222,4.0,4.0,64,0.00,,,0.00,Wunderground v.1.15,2013-07-12 18:40:00,
2013-07-12 14:50:00,89.0,75.7,29.94,SE,144,4.0,4.0,65,0.00,,,0.00,Wunderground v.1.15,2013-07-12 18:50:00,
2013-07-12 15:00:00,88.6,77.1,29.93,ESE,110,4.0,4.0,69,0.00,,,0.00,Wunderground v.1.15,2013-07-12 19:00:00,
2013-07-12 15:10:00,87.6,75.3,29.93,East,96,5.0,5.0,67,0.00,,,0.00,Wunderground v.1.15,2013-07-12 19:10:00,
2013-07-12 15:20:00,86.4,74.6,29.93,SSE,152,6.0,6.0,68,0.00,,,0.00,Wunderground v.1.15,2013-07-12 19:20:00,
2013-07-12 15:30:00,86.1,75.2,29.93,SE,124,5.0,7.0,70,0.00,,,0.00,Wunderground v.1.15,2013-07-12 19:30:00,
2013-07-12 15:40:00,85.9,75.8,29.92,South,173,6.0,6.0,72,0.00,,,0.00,Wunderground v.1.15,2013-07-12 19:40:00,
2013-07-12 15:50:00,85.4,74.9,29.93,SW,236,6.0,6.0,71,0.00,,,0.00,Wunderground v.1.15,2013-07-12 19:50:00,
2013-07-12 16:00:00,86.5,76.0,29.93,SSE,149,5.0,5.0,71,0.00,,,0.00,Wunderground v.1.15,2013-07-12 20:00:00,
2013-07-12 16:10:00,86.5,76.4,29.93,South,181,7.0,7.0,72,0.00,,,0.00,Wunderground v.1.15,2013-07-12 20:10:00,
2013-07-12 16:20:00,86.3,75.8,29.93,SW,217,6.0,6.0,71,0.00,,,0.00,Wunderground v.1.15,2013-07-12 20:20:00,
2013-07-12 16:30:00,85.4,75.8,29.93,SSE,152,6.0,7.0,73,0.00,,,0.00,Wunderground v.1.15,2013-07-12 20:30:00,
2013-07-12 16:40:00,85.2,76.0,29.92,SE,132,6.0,8.0,74,0.00,,,0.00,Wunderground v.1.15,2013-07-12 20:40:00,
2013-07-12 16:50:00,85.8,75.7,29.92,SSE,158,8.0,11.0,72,0.00,,,0.00,Wunderground v.1.15,2013-07-12 20:50:00,
2013-07-12 17:00:00,86.5,75.1,29.92,SE,146,6.0,6.0,69,0.00,,,0.00,Wunderground v.1.15,2013-07-12 21:00:00,
2013-07-12 17:20:00,84.8,73.1,29.92,SE,146,8.0,8.0,68,0.00,,,0.00,Wunderground v.1.15,2013-07-12 21:20:00,
2013-07-12 17:30:00,84.3,73.9,29.92,South,169,5.0,5.0,71,0.00,,,0.00,Wunderground v.1.15,2013-07-12 21:30:00,
2013-07-12 17:50:00,83.4,74.2,29.92,East,101,7.0,9.0,74,0.00,,,0.00,Wunderground v.1.15,2013-07-12 21:50:00,
2013-07-12 18:10:00,83.5,74.7,29.92,SSE,160,6.0,6.0,75,0.00,,,0.00,Wunderground v.1.15,2013-07-12 22:10:00,
2013-07-12 18:20:00,83.5,75.1,29.93,SSE,147,3.0,8.0,76,0.00,,,0.00,Wunderground v.1.15,2013-07-12 22:20:00,
2013-07-12 18:40:00,83.0,74.6,29.93,NNE,32,4.0,4.0,76,0.00,,,0.00,Wunderground v.1.15,2013-07-12 22:40:00,
2013-07-12 18:50:00,82.8,74.5,29.94,NNE,15,2.0,9.0,76,0.00,,,0.00,Wunderground v.1.15,2013-07-12 22:50:00,
2013-07-12 19:10:00,80.5,72.6,29.94,North,352,4.0,4.0,77,0.00,,,0.00,Wunderground v.1.15,2013-07-12 23:10:00,
2013-07-12 19:20:00,80.2,72.3,29.95,North,360,3.0,3.0,77,0.00,,,0.00,Wunderground v.1.15,2013-07-12 23:20:00,
2013-07-12 19:40:00,79.7,71.8,29.95,West,277,2.0,2.0,77,0.00,,,0.00,Wunderground v.1.15,2013-07-12 23:40:00,
2013-07-12 19:50:00,79.4,71.6,29.95,NNW,338,2.0,2.0,77,0.00,,,0.00,Wunderground v.1.15,2013-07-12 23:50:00,
2013-07-12 20:10:00,79.2,70.6,29.95,North,352,3.0,3.0,75,0.00,,,0.00,Wunderground v.1.15,2013-07-13 00:10:00,
2013-07-12 20:30:00,79.0,70.8,29.95,North,349,0.0,1.0,76,0.00,,,0.00,Wunderground v.1.15,2013-07-13 00:30:00,
2013-07-12 20:40:00,79.0,70.8,29.95,WNW,290,1.0,1.0,76,0.00,,,0.00,Wunderground v.1.15,2013-07-13 00:40:00,
2013-07-12 20:50:00,78.8,71.0,29.95,WNW,291,0.0,0.0,77,0.00,,,0.00,Wunderground v.1.15,2013-07-13 00:50:00,
2013-07-12 21:20:00,78.4,71.0,29.96,WNW,291,1.0,1.0,78,0.00,,,0.00,Wunderground v.1.15,2013-07-13 01:20:00,
2013-07-12 21:30:00,78.4,71.0,29.96,WNW,291,0.0,0.0,78,0.00,,,0.00,Wunderground v.1.15,2013-07-13 01:30:00,
2013-07-12 21:40:00,78.2,70.8,29.96,WNW,290,0.0,0.0,78,0.00,,,0.00,Wunderground v.1.15,2013-07-13 01:40:00,
2013-07-12 21:50:00,78.3,71.2,29.97,WNW,290,0.0,0.0,79,0.00,,,0.00,Wunderground v.1.15,2013-07-13 01:50:00,
2013-07-12 22:00:00,78.4,71.7,29.97,WNW,288,0.0,0.0,80,0.00,,,0.00,Wunderground v.1.15,2013-07-13 02:00:00,
2013-07-12 22:10:00,78.2,71.5,29.97,WNW,288,0.0,0.0,80,0.00,,,0.00,Wunderground v.1.15,2013-07-13 02:10:00,
2013-07-12 22:30:00,78.1,71.8,29.98,NW,304,1.0,2.0,81,0.00,,,0.00,Wunderground v.1.15,2013-07-13 02:30:00,
2013-07-12 22:40:00,77.9,72.0,29.97,NW,326,1.0,1.0,82,0.00,,,0.00,Wunderground v.1.15,2013-07-13 02:40:00,
2013-07-12 22:50:00,77.7,71.8,29.98,NW,314,2.0,2.0,82,0.00,,,0.00,Wunderground v.1.15,2013-07-13 02:50:00,
2013-07-12 23:10:00,77.5,71.6,29.98,NNW,336,0.0,1.0,82,0.00,,,0.00,Wunderground v.1.15,2013-07-13 03:10:00,
2013-07-12 23:20:00,77.5,71.9,29.98,North,354,1.0,1.0,83,0.00,,,0.00,Wunderground v.1.15,2013-07-13 03:20:00,
2013-07-12 23:50:00,77.4,72.2,29.98,WNW,295,0.0,0.0,84,0.00,,,0.00,Wunderground v.1.15,2013-07-13 03:50:00,